sensor_id;sensor_type;location;lat;lon;timestamp;P1;durP1;ratioP1;P2;durP2;ratioP2
20671;SDS011;10495;50.922;4.760;2022-10-18T00:00:27;3.93;;;3.30;;
20671;SDS011;10495;50.922;4.760;2022-10-18T00:02:52;5.47;;;3.77;;
20671;SDS011;10495;50.922;4.760;2022-10-18T00:05:18;3.77;;;3.20;;
20671;SDS011;10495;50.922;4.760;2022-10-18T00:07:43;3.33;;;2.80;;
20671;SDS011;10495;50.922;4.760;2022-10-18T00:10:09;5.03;;;3.43;;
20671;SDS011;10495;50.922;4.760;2022-10-18T00:12:35;3.57;;;3.27;;
20671;SDS011;10495;50.922;4.760;2022-10-18T00:15:02;4.60;;;3.33;;
20671;SDS011;10495;50.922;4.760;2022-10-18T00:17:29;3.87;;;3.47;;
20671;SDS011;10495;50.922;4.760;2022-10-18T00:19:54;4.43;;;3.30;;
20671;SDS011;10495;50.922;4.760;2022-10-18T00:22:20;4.23;;;3.20;;
20671;SDS011;10495;50.922;4.760;2022-10-18T00:24:46;5.13;;;3.20;;
20671;SDS011;10495;50.922;4.760;2022-10-18T00:27:11;5.57;;;4.10;;
20671;SDS011;10495;50.922;4.760;2022-10-18T00:29:37;4.70;;;4.13;;
20671;SDS011;10495;50.922;4.760;2022-10-18T00:32:03;7.40;;;4.67;;
20671;SDS011;10495;50.922;4.760;2022-10-18T00:34:29;6.73;;;4.50;;
20671;SDS011;10495;50.922;4.760;2022-10-18T00:36:55;5.23;;;4.00;;
20671;SDS011;10495;50.922;4.760;2022-10-18T00:39:20;7.13;;;3.97;;
20671;SDS011;10495;50.922;4.760;2022-10-18T00:41:46;3.97;;;3.43;;
20671;SDS011;10495;50.922;4.760;2022-10-18T00:46:42;4.23;;;3.53;;
20671;SDS011;10495;50.922;4.760;2022-10-18T00:49:31;5.13;;;3.20;;
20671;SDS011;10495;50.922;4.760;2022-10-18T00:51:57;3.63;;;3.30;;
20671;SDS011;10495;50.922;4.760;2022-10-18T00:54:30;5.40;;;3.33;;
20671;SDS011;10495;50.922;4.760;2022-10-18T00:56:57;4.97;;;3.50;;
20671;SDS011;10495;50.922;4.760;2022-10-18T00:59:25;4.23;;;3.30;;
20671;SDS011;10495;50.922;4.760;2022-10-18T01:01:51;5.30;;;3.40;;
20671;SDS011;10495;50.922;4.760;2022-10-18T01:04:17;4.37;;;3.13;;
20671;SDS011;10495;50.922;4.760;2022-10-18T01:06:47;4.77;;;3.40;;
20671;SDS011;10495;50.922;4.760;2022-10-18T01:09:26;5.80;;;3.77;;
20671;SDS011;10495;50.922;4.760;2022-10-18T01:12:19;3.77;;;3.17;;
20671;SDS011;10495;50.922;4.760;2022-10-18T01:17:51;7.13;;;3.70;;
20671;SDS011;10495;50.922;4.760;2022-10-18T01:23:27;6.47;;;3.97;;
20671;SDS011;10495;50.922;4.760;2022-10-18T01:29:05;9.20;;;5.43;;
20671;SDS011;10495;50.922;4.760;2022-10-18T01:32:01;4.80;;;4.00;;
20671;SDS011;10495;50.922;4.760;2022-10-18T01:34:32;8.63;;;4.43;;
20671;SDS011;10495;50.922;4.760;2022-10-18T01:37:00;4.83;;;4.20;;
20671;SDS011;10495;50.922;4.760;2022-10-18T01:39:32;4.40;;;4.00;;
20671;SDS011;10495;50.922;4.760;2022-10-18T01:42:03;5.73;;;4.30;;
20671;SDS011;10495;50.922;4.760;2022-10-18T01:44:32;7.77;;;4.20;;
20671;SDS011;10495;50.922;4.760;2022-10-18T01:46:59;4.30;;;3.80;;
20671;SDS011;10495;50.922;4.760;2022-10-18T01:49:25;3.83;;;3.30;;
20671;SDS011;10495;50.922;4.760;2022-10-18T01:51:51;4.77;;;3.73;;
20671;SDS011;10495;50.922;4.760;2022-10-18T01:54:21;4.10;;;3.60;;
20671;SDS011;10495;50.922;4.760;2022-10-18T01:56:57;5.67;;;3.77;;
20671;SDS011;10495;50.922;4.760;2022-10-18T01:59:50;5.77;;;3.30;;
20671;SDS011;10495;50.922;4.760;2022-10-18T02:05:06;3.63;;;3.07;;
20671;SDS011;10495;50.922;4.760;2022-10-18T02:10:46;9.17;;;4.07;;
20671;SDS011;10495;50.922;4.760;2022-10-18T02:13:15;4.20;;;3.60;;
20671;SDS011;10495;50.922;4.760;2022-10-18T02:15:45;4.47;;;3.80;;
20671;SDS011;10495;50.922;4.760;2022-10-18T02:18:23;4.33;;;3.90;;
20671;SDS011;10495;50.922;4.760;2022-10-18T02:20:53;5.07;;;4.30;;
20671;SDS011;10495;50.922;4.760;2022-10-18T02:23:21;4.87;;;3.87;;
20671;SDS011;10495;50.922;4.760;2022-10-18T02:25:49;5.60;;;3.83;;
20671;SDS011;10495;50.922;4.760;2022-10-18T02:28:16;6.07;;;4.67;;
20671;SDS011;10495;50.922;4.760;2022-10-18T02:31:29;7.23;;;4.40;;
20671;SDS011;10495;50.922;4.760;2022-10-18T02:33:36;4.17;;;3.77;;
20671;SDS011;10495;50.922;4.760;2022-10-18T02:36:23;5.30;;;3.50;;
20671;SDS011;10495;50.922;4.760;2022-10-18T02:38:53;5.40;;;3.77;;
20671;SDS011;10495;50.922;4.760;2022-10-18T02:41:26;6.07;;;3.47;;
20671;SDS011;10495;50.922;4.760;2022-10-18T02:43:52;4.67;;;4.07;;
20671;SDS011;10495;50.922;4.760;2022-10-18T02:46:18;4.07;;;3.60;;
20671;SDS011;10495;50.922;4.760;2022-10-18T02:48:44;4.03;;;3.43;;
20671;SDS011;10495;50.922;4.760;2022-10-18T02:51:10;4.43;;;3.20;;
20671;SDS011;10495;50.922;4.760;2022-10-18T02:53:35;12.33;;;3.70;;
20671;SDS011;10495;50.922;4.760;2022-10-18T02:56:01;2.90;;;2.60;;
20671;SDS011;10495;50.922;4.760;2022-10-18T02:58:27;4.87;;;3.10;;
20671;SDS011;10495;50.922;4.760;2022-10-18T03:00:53;3.73;;;2.97;;
20671;SDS011;10495;50.922;4.760;2022-10-18T03:03:18;5.37;;;3.20;;
20671;SDS011;10495;50.922;4.760;2022-10-18T03:05:47;5.17;;;2.97;;
20671;SDS011;10495;50.922;4.760;2022-10-18T03:08:13;3.90;;;2.90;;
20671;SDS011;10495;50.922;4.760;2022-10-18T03:10:39;3.97;;;3.57;;
20671;SDS011;10495;50.922;4.760;2022-10-18T03:13:04;5.80;;;3.30;;
20671;SDS011;10495;50.922;4.760;2022-10-18T03:15:30;4.17;;;3.23;;
20671;SDS011;10495;50.922;4.760;2022-10-18T03:17:55;4.63;;;3.60;;
20671;SDS011;10495;50.922;4.760;2022-10-18T03:20:21;5.77;;;4.20;;
20671;SDS011;10495;50.922;4.760;2022-10-18T03:22:47;6.60;;;3.50;;
20671;SDS011;10495;50.922;4.760;2022-10-18T03:25:12;4.00;;;3.60;;
20671;SDS011;10495;50.922;4.760;2022-10-18T03:27:38;4.30;;;3.57;;
20671;SDS011;10495;50.922;4.760;2022-10-18T03:30:04;4.30;;;3.53;;
20671;SDS011;10495;50.922;4.760;2022-10-18T03:32:30;4.10;;;3.63;;
20671;SDS011;10495;50.922;4.760;2022-10-18T03:34:55;5.33;;;3.30;;
20671;SDS011;10495;50.922;4.760;2022-10-18T03:37:21;6.93;;;4.03;;
20671;SDS011;10495;50.922;4.760;2022-10-18T03:39:46;4.97;;;3.47;;
20671;SDS011;10495;50.922;4.760;2022-10-18T03:42:12;5.20;;;3.63;;
20671;SDS011;10495;50.922;4.760;2022-10-18T03:44:37;4.73;;;3.27;;
20671;SDS011;10495;50.922;4.760;2022-10-18T03:47:03;7.53;;;4.60;;
20671;SDS011;10495;50.922;4.760;2022-10-18T03:49:29;4.47;;;4.07;;
20671;SDS011;10495;50.922;4.760;2022-10-18T03:51:54;4.80;;;4.00;;
20671;SDS011;10495;50.922;4.760;2022-10-18T03:54:20;6.23;;;4.97;;
20671;SDS011;10495;50.922;4.760;2022-10-18T03:56:45;6.10;;;4.73;;
20671;SDS011;10495;50.922;4.760;2022-10-18T03:59:11;7.00;;;5.20;;
20671;SDS011;10495;50.922;4.760;2022-10-18T04:01:36;5.27;;;4.63;;
20671;SDS011;10495;50.922;4.760;2022-10-18T04:04:02;5.43;;;4.67;;
20671;SDS011;10495;50.922;4.760;2022-10-18T04:06:27;5.40;;;4.27;;
20671;SDS011;10495;50.922;4.760;2022-10-18T04:08:53;6.63;;;4.93;;
20671;SDS011;10495;50.922;4.760;2022-10-18T04:11:19;6.10;;;4.90;;
20671;SDS011;10495;50.922;4.760;2022-10-18T04:13:45;5.90;;;4.27;;
20671;SDS011;10495;50.922;4.760;2022-10-18T04:16:10;6.80;;;4.73;;
20671;SDS011;10495;50.922;4.760;2022-10-18T04:18:36;5.43;;;4.30;;
20671;SDS011;10495;50.922;4.760;2022-10-18T04:21:01;4.53;;;3.97;;
20671;SDS011;10495;50.922;4.760;2022-10-18T04:23:27;4.63;;;4.13;;
20671;SDS011;10495;50.922;4.760;2022-10-18T04:25:53;4.77;;;3.87;;
20671;SDS011;10495;50.922;4.760;2022-10-18T04:28:19;4.23;;;3.80;;
20671;SDS011;10495;50.922;4.760;2022-10-18T04:30:49;4.83;;;4.27;;
20671;SDS011;10495;50.922;4.760;2022-10-18T04:33:15;4.37;;;3.83;;
20671;SDS011;10495;50.922;4.760;2022-10-18T04:35:41;8.27;;;5.40;;
20671;SDS011;10495;50.922;4.760;2022-10-18T04:38:06;9.10;;;6.03;;
20671;SDS011;10495;50.922;4.760;2022-10-18T04:40:33;6.77;;;5.20;;
20671;SDS011;10495;50.922;4.760;2022-10-18T04:42:58;6.40;;;5.80;;
20671;SDS011;10495;50.922;4.760;2022-10-18T04:45:24;8.17;;;5.73;;
20671;SDS011;10495;50.922;4.760;2022-10-18T04:47:49;5.23;;;4.70;;
20671;SDS011;10495;50.922;4.760;2022-10-18T04:50:15;12.13;;;6.03;;
20671;SDS011;10495;50.922;4.760;2022-10-18T04:52:41;4.63;;;4.20;;
20671;SDS011;10495;50.922;4.760;2022-10-18T04:55:06;5.60;;;4.77;;
20671;SDS011;10495;50.922;4.760;2022-10-18T04:57:32;5.50;;;4.40;;
20671;SDS011;10495;50.922;4.760;2022-10-18T04:59:58;7.30;;;5.43;;
20671;SDS011;10495;50.922;4.760;2022-10-18T05:02:23;8.57;;;5.70;;
20671;SDS011;10495;50.922;4.760;2022-10-18T05:04:49;5.97;;;5.23;;
20671;SDS011;10495;50.922;4.760;2022-10-18T05:07:15;7.00;;;5.50;;
20671;SDS011;10495;50.922;4.760;2022-10-18T05:09:41;9.70;;;5.60;;
20671;SDS011;10495;50.922;4.760;2022-10-18T05:12:06;5.57;;;4.20;;
20671;SDS011;10495;50.922;4.760;2022-10-18T05:14:32;5.30;;;4.57;;
20671;SDS011;10495;50.922;4.760;2022-10-18T05:16:58;5.70;;;4.47;;
20671;SDS011;10495;50.922;4.760;2022-10-18T05:19:23;4.83;;;4.27;;
20671;SDS011;10495;50.922;4.760;2022-10-18T05:21:49;5.70;;;4.43;;
20671;SDS011;10495;50.922;4.760;2022-10-18T05:24:15;6.47;;;4.70;;
20671;SDS011;10495;50.922;4.760;2022-10-18T05:26:40;7.07;;;4.67;;
20671;SDS011;10495;50.922;4.760;2022-10-18T05:29:06;5.17;;;4.53;;
20671;SDS011;10495;50.922;4.760;2022-10-18T05:31:31;7.23;;;5.17;;
20671;SDS011;10495;50.922;4.760;2022-10-18T05:33:57;7.20;;;5.27;;
20671;SDS011;10495;50.922;4.760;2022-10-18T05:36:23;5.90;;;4.73;;
20671;SDS011;10495;50.922;4.760;2022-10-18T05:38:50;6.27;;;4.53;;
20671;SDS011;10495;50.922;4.760;2022-10-18T05:41:16;6.00;;;5.40;;
20671;SDS011;10495;50.922;4.760;2022-10-18T05:43:42;5.67;;;4.47;;
20671;SDS011;10495;50.922;4.760;2022-10-18T05:46:08;8.67;;;6.10;;
20671;SDS011;10495;50.922;4.760;2022-10-18T05:48:34;6.80;;;5.43;;
20671;SDS011;10495;50.922;4.760;2022-10-18T05:50:59;6.80;;;5.27;;
20671;SDS011;10495;50.922;4.760;2022-10-18T05:53:26;6.53;;;5.47;;
20671;SDS011;10495;50.922;4.760;2022-10-18T05:55:51;7.53;;;6.10;;
20671;SDS011;10495;50.922;4.760;2022-10-18T05:58:17;8.50;;;5.67;;
20671;SDS011;10495;50.922;4.760;2022-10-18T06:00:42;7.43;;;6.50;;
20671;SDS011;10495;50.922;4.760;2022-10-18T06:03:08;9.77;;;6.37;;
20671;SDS011;10495;50.922;4.760;2022-10-18T06:05:34;7.70;;;5.70;;
20671;SDS011;10495;50.922;4.760;2022-10-18T06:07:59;8.70;;;6.20;;
20671;SDS011;10495;50.922;4.760;2022-10-18T06:10:25;7.63;;;5.83;;
20671;SDS011;10495;50.922;4.760;2022-10-18T06:12:50;9.50;;;7.23;;
20671;SDS011;10495;50.922;4.760;2022-10-18T06:15:16;7.63;;;5.97;;
20671;SDS011;10495;50.922;4.760;2022-10-18T06:17:42;7.47;;;5.53;;
20671;SDS011;10495;50.922;4.760;2022-10-18T06:20:07;5.67;;;5.00;;
20671;SDS011;10495;50.922;4.760;2022-10-18T06:22:33;6.97;;;5.40;;
20671;SDS011;10495;50.922;4.760;2022-10-18T06:24:59;8.43;;;6.20;;
20671;SDS011;10495;50.922;4.760;2022-10-18T06:27:24;8.27;;;6.77;;
20671;SDS011;10495;50.922;4.760;2022-10-18T06:29:50;8.37;;;6.97;;
20671;SDS011;10495;50.922;4.760;2022-10-18T06:32:15;10.10;;;7.83;;
20671;SDS011;10495;50.922;4.760;2022-10-18T06:34:41;12.20;;;9.33;;
20671;SDS011;10495;50.922;4.760;2022-10-18T06:37:07;14.63;;;9.80;;
20671;SDS011;10495;50.922;4.760;2022-10-18T06:39:33;10.87;;;8.37;;
20671;SDS011;10495;50.922;4.760;2022-10-18T06:41:59;9.43;;;7.93;;
20671;SDS011;10495;50.922;4.760;2022-10-18T06:44:24;9.60;;;7.17;;
20671;SDS011;10495;50.922;4.760;2022-10-18T06:46:50;7.97;;;7.17;;
20671;SDS011;10495;50.922;4.760;2022-10-18T06:49:17;10.93;;;7.20;;
20671;SDS011;10495;50.922;4.760;2022-10-18T06:51:43;10.10;;;7.90;;
20671;SDS011;10495;50.922;4.760;2022-10-18T06:54:10;10.27;;;7.40;;
20671;SDS011;10495;50.922;4.760;2022-10-18T06:56:36;11.10;;;8.60;;
20671;SDS011;10495;50.922;4.760;2022-10-18T06:59:02;9.00;;;7.47;;
20671;SDS011;10495;50.922;4.760;2022-10-18T07:01:28;10.57;;;7.93;;
20671;SDS011;10495;50.922;4.760;2022-10-18T07:03:54;13.77;;;9.47;;
20671;SDS011;10495;50.922;4.760;2022-10-18T07:06:21;11.33;;;8.87;;
20671;SDS011;10495;50.922;4.760;2022-10-18T07:08:48;12.17;;;8.83;;
20671;SDS011;10495;50.922;4.760;2022-10-18T07:11:15;14.20;;;8.70;;
20671;SDS011;10495;50.922;4.760;2022-10-18T07:13:42;26.80;;;9.60;;
20671;SDS011;10495;50.922;4.760;2022-10-18T07:18:36;10.00;;;6.40;;
20671;SDS011;10495;50.922;4.760;2022-10-18T07:21:03;11.00;;;7.67;;
20671;SDS011;10495;50.922;4.760;2022-10-18T07:23:34;8.83;;;6.37;;
20671;SDS011;10495;50.922;4.760;2022-10-18T07:26:02;10.07;;;7.00;;
20671;SDS011;10495;50.922;4.760;2022-10-18T07:28:34;9.33;;;6.87;;
20671;SDS011;10495;50.922;4.760;2022-10-18T07:31:03;9.77;;;7.37;;
20671;SDS011;10495;50.922;4.760;2022-10-18T07:33:33;8.13;;;7.17;;
20671;SDS011;10495;50.922;4.760;2022-10-18T07:36:00;8.20;;;6.30;;
20671;SDS011;10495;50.922;4.760;2022-10-18T07:38:27;10.93;;;7.33;;
20671;SDS011;10495;50.922;4.760;2022-10-18T07:40:56;15.63;;;8.60;;
20671;SDS011;10495;50.922;4.760;2022-10-18T07:43:26;12.00;;;8.63;;
20671;SDS011;10495;50.922;4.760;2022-10-18T07:45:56;16.60;;;8.77;;
20671;SDS011;10495;50.922;4.760;2022-10-18T07:48:23;14.07;;;8.63;;
20671;SDS011;10495;50.922;4.760;2022-10-18T07:50:50;21.40;;;10.83;;
20671;SDS011;10495;50.922;4.760;2022-10-18T07:53:16;17.90;;;9.27;;
20671;SDS011;10495;50.922;4.760;2022-10-18T07:55:41;12.57;;;7.73;;
20671;SDS011;10495;50.922;4.760;2022-10-18T07:58:08;15.50;;;8.13;;
20671;SDS011;10495;50.922;4.760;2022-10-18T08:00:37;11.17;;;7.90;;
20671;SDS011;10495;50.922;4.760;2022-10-18T08:03:03;11.00;;;6.93;;
20671;SDS011;10495;50.922;4.760;2022-10-18T08:05:29;13.47;;;8.27;;
20671;SDS011;10495;50.922;4.760;2022-10-18T08:07:54;18.23;;;10.10;;
20671;SDS011;10495;50.922;4.760;2022-10-18T08:10:21;16.37;;;10.33;;
20671;SDS011;10495;50.922;4.760;2022-10-18T08:12:48;16.40;;;10.40;;
20671;SDS011;10495;50.922;4.760;2022-10-18T08:15:14;23.87;;;11.43;;
20671;SDS011;10495;50.922;4.760;2022-10-18T08:17:40;22.53;;;13.17;;
20671;SDS011;10495;50.922;4.760;2022-10-18T08:20:09;17.93;;;13.17;;
20671;SDS011;10495;50.922;4.760;2022-10-18T08:22:35;17.87;;;12.23;;
20671;SDS011;10495;50.922;4.760;2022-10-18T08:25:01;18.93;;;14.00;;
20671;SDS011;10495;50.922;4.760;2022-10-18T08:27:28;21.03;;;14.20;;
20671;SDS011;10495;50.922;4.760;2022-10-18T08:29:54;19.60;;;13.83;;
20671;SDS011;10495;50.922;4.760;2022-10-18T08:32:20;14.87;;;11.33;;
20671;SDS011;10495;50.922;4.760;2022-10-18T08:34:46;17.97;;;12.03;;
20671;SDS011;10495;50.922;4.760;2022-10-18T08:37:12;19.07;;;12.53;;
20671;SDS011;10495;50.922;4.760;2022-10-18T08:39:38;15.90;;;12.13;;
20671;SDS011;10495;50.922;4.760;2022-10-18T08:44:48;16.87;;;11.60;;
20671;SDS011;10495;50.922;4.760;2022-10-18T08:47:20;16.93;;;11.87;;
20671;SDS011;10495;50.922;4.760;2022-10-18T08:49:50;17.23;;;12.60;;
20671;SDS011;10495;50.922;4.760;2022-10-18T08:57:47;15.67;;;11.10;;
20671;SDS011;10495;50.922;4.760;2022-10-18T09:00:16;18.30;;;11.03;;
20671;SDS011;10495;50.922;4.760;2022-10-18T09:03:02;16.50;;;12.60;;
20671;SDS011;10495;50.922;4.760;2022-10-18T09:16:17;13.27;;;9.40;;
20671;SDS011;10495;50.922;4.760;2022-10-18T09:18:54;14.20;;;7.57;;
20671;SDS011;10495;50.922;4.760;2022-10-18T09:21:44;13.63;;;8.90;;
20671;SDS011;10495;50.922;4.760;2022-10-18T09:24:40;16.03;;;10.37;;
20671;SDS011;10495;50.922;4.760;2022-10-18T09:33:05;18.27;;;9.50;;
20671;SDS011;10495;50.922;4.760;2022-10-18T09:35:43;14.30;;;9.00;;
20671;SDS011;10495;50.922;4.760;2022-10-18T09:38:23;13.27;;;7.87;;
20671;SDS011;10495;50.922;4.760;2022-10-18T09:40:59;16.00;;;8.93;;
20671;SDS011;10495;50.922;4.760;2022-10-18T09:43:36;15.40;;;8.77;;
20671;SDS011;10495;50.922;4.760;2022-10-18T09:46:16;16.43;;;8.83;;
20671;SDS011;10495;50.922;4.760;2022-10-18T09:51:19;15.10;;;8.20;;
20671;SDS011;10495;50.922;4.760;2022-10-18T09:56:43;15.73;;;8.17;;
20671;SDS011;10495;50.922;4.760;2022-10-18T10:01:52;13.83;;;8.40;;
20671;SDS011;10495;50.922;4.760;2022-10-18T10:04:18;19.57;;;8.27;;
20671;SDS011;10495;50.922;4.760;2022-10-18T10:06:51;13.07;;;6.20;;
20671;SDS011;10495;50.922;4.760;2022-10-18T10:09:20;20.03;;;7.83;;
20671;SDS011;10495;50.922;4.760;2022-10-18T10:12:00;14.20;;;7.83;;
20671;SDS011;10495;50.922;4.760;2022-10-18T10:14:27;14.63;;;6.67;;
20671;SDS011;10495;50.922;4.760;2022-10-18T10:16:58;17.63;;;7.47;;
20671;SDS011;10495;50.922;4.760;2022-10-18T10:19:33;11.27;;;6.77;;
20671;SDS011;10495;50.922;4.760;2022-10-18T10:22:04;11.60;;;7.17;;
20671;SDS011;10495;50.922;4.760;2022-10-18T10:32:10;13.70;;;6.80;;
20671;SDS011;10495;50.922;4.760;2022-10-18T10:34:38;12.43;;;6.43;;
20671;SDS011;10495;50.922;4.760;2022-10-18T10:37:19;15.27;;;7.87;;
20671;SDS011;10495;50.922;4.760;2022-10-18T10:42:36;15.33;;;6.97;;
20671;SDS011;10495;50.922;4.760;2022-10-18T10:45:03;17.33;;;7.83;;
20671;SDS011;10495;50.922;4.760;2022-10-18T10:47:32;22.30;;;6.97;;
20671;SDS011;10495;50.922;4.760;2022-10-18T10:50:07;16.67;;;6.00;;
20671;SDS011;10495;50.922;4.760;2022-10-18T10:52:35;15.67;;;7.23;;
20671;SDS011;10495;50.922;4.760;2022-10-18T10:55:04;23.73;;;7.83;;
20671;SDS011;10495;50.922;4.760;2022-10-18T10:57:41;20.20;;;8.97;;
20671;SDS011;10495;50.922;4.760;2022-10-18T11:03:14;15.63;;;6.43;;
20671;SDS011;10495;50.922;4.760;2022-10-18T11:05:49;14.10;;;6.67;;
20671;SDS011;10495;50.922;4.760;2022-10-18T11:08:30;16.97;;;5.30;;
20671;SDS011;10495;50.922;4.760;2022-10-18T11:13:49;12.63;;;4.57;;
20671;SDS011;10495;50.922;4.760;2022-10-18T11:17:04;13.87;;;4.33;;
20671;SDS011;10495;50.922;4.760;2022-10-18T11:22:14;8.27;;;3.37;;
20671;SDS011;10495;50.922;4.760;2022-10-18T11:24:43;11.97;;;3.50;;
20671;SDS011;10495;50.922;4.760;2022-10-18T11:38:36;4.73;;;2.70;;
20671;SDS011;10495;50.922;4.760;2022-10-18T11:43:54;7.93;;;2.90;;
20671;SDS011;10495;50.922;4.760;2022-10-18T11:46:36;6.70;;;2.77;;
20671;SDS011;10495;50.922;4.760;2022-10-18T11:49:09;8.23;;;3.13;;
20671;SDS011;10495;50.922;4.760;2022-10-18T11:52:01;9.97;;;4.50;;
20671;SDS011;10495;50.922;4.760;2022-10-18T11:54:58;6.60;;;3.07;;
20671;SDS011;10495;50.922;4.760;2022-10-18T12:00:13;9.83;;;3.20;;
20671;SDS011;10495;50.922;4.760;2022-10-18T12:05:51;9.53;;;2.80;;
20671;SDS011;10495;50.922;4.760;2022-10-18T12:08:31;7.17;;;2.47;;
20671;SDS011;10495;50.922;4.760;2022-10-18T12:11:20;5.13;;;1.90;;
20671;SDS011;10495;50.922;4.760;2022-10-18T12:13:51;4.63;;;2.03;;
20671;SDS011;10495;50.922;4.760;2022-10-18T12:16:23;3.77;;;1.67;;
20671;SDS011;10495;50.922;4.760;2022-10-18T12:18:55;4.43;;;1.60;;
20671;SDS011;10495;50.922;4.760;2022-10-18T12:21:24;7.47;;;2.10;;
20671;SDS011;10495;50.922;4.760;2022-10-18T12:26:28;5.63;;;2.47;;
20671;SDS011;10495;50.922;4.760;2022-10-18T12:39:43;4.27;;;2.10;;
20671;SDS011;10495;50.922;4.760;2022-10-18T12:42:16;5.27;;;2.23;;
20671;SDS011;10495;50.922;4.760;2022-10-18T12:44:48;6.47;;;2.10;;
20671;SDS011;10495;50.922;4.760;2022-10-18T12:47:24;5.80;;;2.50;;
20671;SDS011;10495;50.922;4.760;2022-10-18T12:49:57;7.33;;;2.57;;
20671;SDS011;10495;50.922;4.760;2022-10-18T12:52:25;7.93;;;2.73;;
20671;SDS011;10495;50.922;4.760;2022-10-18T13:16:13;5.53;;;2.10;;
20671;SDS011;10495;50.922;4.760;2022-10-18T13:18:55;7.63;;;2.13;;
20671;SDS011;10495;50.922;4.760;2022-10-18T13:24:14;6.87;;;1.73;;
20671;SDS011;10495;50.922;4.760;2022-10-18T13:26:51;5.27;;;2.07;;
20671;SDS011;10495;50.922;4.760;2022-10-18T13:32:51;6.27;;;2.00;;
20671;SDS011;10495;50.922;4.760;2022-10-18T13:35:48;10.67;;;2.10;;
20671;SDS011;10495;50.922;4.760;2022-10-18T13:39:02;5.67;;;1.93;;
20671;SDS011;10495;50.922;4.760;2022-10-18T13:41:22;7.07;;;2.40;;
20671;SDS011;10495;50.922;4.760;2022-10-18T13:44:09;10.90;;;2.20;;
20671;SDS011;10495;50.922;4.760;2022-10-18T13:54:32;5.57;;;2.40;;
20671;SDS011;10495;50.922;4.760;2022-10-18T13:57:09;11.37;;;2.23;;
20671;SDS011;10495;50.922;4.760;2022-10-18T14:08:41;8.23;;;2.10;;
20671;SDS011;10495;50.922;4.760;2022-10-18T14:11:21;8.17;;;2.10;;
20671;SDS011;10495;50.922;4.760;2022-10-18T14:14:15;7.73;;;2.10;;
20671;SDS011;10495;50.922;4.760;2022-10-18T14:19:49;5.87;;;2.13;;
20671;SDS011;10495;50.922;4.760;2022-10-18T14:22:29;6.93;;;1.90;;
20671;SDS011;10495;50.922;4.760;2022-10-18T14:25:00;6.50;;;2.57;;
20671;SDS011;10495;50.922;4.760;2022-10-18T14:27:27;8.17;;;2.37;;
20671;SDS011;10495;50.922;4.760;2022-10-18T14:30:06;8.43;;;2.30;;
20671;SDS011;10495;50.922;4.760;2022-10-18T14:32:32;5.70;;;1.90;;
20671;SDS011;10495;50.922;4.760;2022-10-18T14:34:58;6.23;;;2.53;;
20671;SDS011;10495;50.922;4.760;2022-10-18T14:37:28;8.77;;;3.40;;
20671;SDS011;10495;50.922;4.760;2022-10-18T14:39:57;4.37;;;1.93;;
20671;SDS011;10495;50.922;4.760;2022-10-18T14:42:24;9.57;;;2.30;;
20671;SDS011;10495;50.922;4.760;2022-10-18T14:44:52;8.37;;;2.17;;
20671;SDS011;10495;50.922;4.760;2022-10-18T14:47:30;6.13;;;2.07;;
20671;SDS011;10495;50.922;4.760;2022-10-18T14:49:59;4.77;;;2.23;;
20671;SDS011;10495;50.922;4.760;2022-10-18T14:52:33;6.43;;;1.87;;
20671;SDS011;10495;50.922;4.760;2022-10-18T14:54:59;9.33;;;2.13;;
20671;SDS011;10495;50.922;4.760;2022-10-18T14:57:33;8.03;;;1.90;;
20671;SDS011;10495;50.922;4.760;2022-10-18T15:00:05;9.77;;;2.10;;
20671;SDS011;10495;50.922;4.760;2022-10-18T15:02:34;10.40;;;2.63;;
20671;SDS011;10495;50.922;4.760;2022-10-18T15:05:06;7.50;;;2.07;;
20671;SDS011;10495;50.922;4.760;2022-10-18T15:07:34;17.50;;;2.90;;
20671;SDS011;10495;50.922;4.760;2022-10-18T15:10:01;3.93;;;2.17;;
20671;SDS011;10495;50.922;4.760;2022-10-18T15:12:28;9.07;;;2.20;;
20671;SDS011;10495;50.922;4.760;2022-10-18T15:14:56;6.97;;;1.80;;
20671;SDS011;10495;50.922;4.760;2022-10-18T15:17:25;6.40;;;1.57;;
20671;SDS011;10495;50.922;4.760;2022-10-18T15:19:54;7.27;;;2.23;;
20671;SDS011;10495;50.922;4.760;2022-10-18T15:22:30;6.37;;;1.60;;
20671;SDS011;10495;50.922;4.760;2022-10-18T15:25:07;9.63;;;2.50;;
20671;SDS011;10495;50.922;4.760;2022-10-18T15:27:37;7.40;;;2.67;;
20671;SDS011;10495;50.922;4.760;2022-10-18T15:30:07;8.00;;;2.23;;
20671;SDS011;10495;50.922;4.760;2022-10-18T15:32:57;9.40;;;3.07;;
20671;SDS011;10495;50.922;4.760;2022-10-18T15:35:26;8.33;;;2.30;;
20671;SDS011;10495;50.922;4.760;2022-10-18T15:37:55;13.63;;;3.23;;
20671;SDS011;10495;50.922;4.760;2022-10-18T15:40:28;6.67;;;2.67;;
20671;SDS011;10495;50.922;4.760;2022-10-18T15:46:02;6.87;;;2.10;;
20671;SDS011;10495;50.922;4.760;2022-10-18T15:48:30;6.33;;;2.20;;
20671;SDS011;10495;50.922;4.760;2022-10-18T15:51:08;7.37;;;2.00;;
20671;SDS011;10495;50.922;4.760;2022-10-18T15:53:51;8.03;;;2.30;;
20671;SDS011;10495;50.922;4.760;2022-10-18T15:56:26;4.77;;;1.70;;
20671;SDS011;10495;50.922;4.760;2022-10-18T15:58:54;7.17;;;2.03;;
20671;SDS011;10495;50.922;4.760;2022-10-18T16:01:22;3.00;;;1.50;;
20671;SDS011;10495;50.922;4.760;2022-10-18T16:03:59;5.07;;;1.63;;
20671;SDS011;10495;50.922;4.760;2022-10-18T16:06:28;4.60;;;2.03;;
20671;SDS011;10495;50.922;4.760;2022-10-18T16:08:54;3.87;;;1.80;;
20671;SDS011;10495;50.922;4.760;2022-10-18T16:11:21;5.57;;;1.40;;
20671;SDS011;10495;50.922;4.760;2022-10-18T16:13:49;5.23;;;1.57;;
20671;SDS011;10495;50.922;4.760;2022-10-18T16:16:22;10.27;;;1.87;;
20671;SDS011;10495;50.922;4.760;2022-10-18T16:18:49;5.27;;;1.87;;
20671;SDS011;10495;50.922;4.760;2022-10-18T16:21:25;2.70;;;1.50;;
20671;SDS011;10495;50.922;4.760;2022-10-18T16:23:51;3.43;;;1.30;;
20671;SDS011;10495;50.922;4.760;2022-10-18T16:26:18;4.83;;;1.80;;
20671;SDS011;10495;50.922;4.760;2022-10-18T16:28:45;4.23;;;2.00;;
20671;SDS011;10495;50.922;4.760;2022-10-18T16:31:19;7.57;;;3.70;;
20671;SDS011;10495;50.922;4.760;2022-10-18T16:33:51;5.60;;;3.57;;
20671;SDS011;10495;50.922;4.760;2022-10-18T16:36:18;6.10;;;4.20;;
20671;SDS011;10495;50.922;4.760;2022-10-18T16:38:46;6.13;;;3.40;;
20671;SDS011;10495;50.922;4.760;2022-10-18T16:41:12;5.87;;;3.20;;
20671;SDS011;10495;50.922;4.760;2022-10-18T16:43:40;5.07;;;3.13;;
20671;SDS011;10495;50.922;4.760;2022-10-18T16:46:17;3.93;;;2.67;;
20671;SDS011;10495;50.922;4.760;2022-10-18T16:48:48;6.23;;;3.03;;
20671;SDS011;10495;50.922;4.760;2022-10-18T16:51:15;5.47;;;2.97;;
20671;SDS011;10495;50.922;4.760;2022-10-18T16:53:41;7.77;;;4.43;;
20671;SDS011;10495;50.922;4.760;2022-10-18T16:56:17;5.17;;;3.33;;
20671;SDS011;10495;50.922;4.760;2022-10-18T16:58:45;5.53;;;3.00;;
20671;SDS011;10495;50.922;4.760;2022-10-18T17:01:15;5.13;;;2.90;;
20671;SDS011;10495;50.922;4.760;2022-10-18T17:03:43;4.27;;;2.87;;
20671;SDS011;10495;50.922;4.760;2022-10-18T17:06:12;6.70;;;3.67;;
20671;SDS011;10495;50.922;4.760;2022-10-18T17:08:58;9.23;;;5.10;;
20671;SDS011;10495;50.922;4.760;2022-10-18T17:11:25;9.50;;;5.37;;
20671;SDS011;10495;50.922;4.760;2022-10-18T17:13:52;8.00;;;5.30;;
20671;SDS011;10495;50.922;4.760;2022-10-18T17:18:50;8.50;;;4.90;;
20671;SDS011;10495;50.922;4.760;2022-10-18T17:21:16;9.37;;;5.30;;
20671;SDS011;10495;50.922;4.760;2022-10-18T17:23:41;6.03;;;4.10;;
20671;SDS011;10495;50.922;4.760;2022-10-18T17:26:08;6.07;;;3.90;;
20671;SDS011;10495;50.922;4.760;2022-10-18T17:28:38;6.33;;;3.80;;
20671;SDS011;10495;50.922;4.760;2022-10-18T17:31:05;4.27;;;3.27;;
20671;SDS011;10495;50.922;4.760;2022-10-18T17:33:31;6.33;;;3.00;;
20671;SDS011;10495;50.922;4.760;2022-10-18T17:35:57;7.20;;;3.60;;